createdAt,value
2022-10-11T00:01:29.417Z,12.42
2022-10-11T00:04:06.745Z,12.35
2022-10-11T00:06:44.075Z,12.28
2022-10-11T00:09:21.467Z,12.24
2022-10-11T00:11:59.032Z,12.16
2022-10-11T00:14:36.332Z,12.06
2022-10-11T00:17:13.633Z,12.08
2022-10-11T00:19:50.877Z,12.02
2022-10-11T00:22:28.168Z,12.02
2022-10-11T00:25:10.399Z,11.98
2022-10-11T00:27:47.681Z,11.95
2022-10-11T00:30:25.100Z,11.88
2022-10-11T00:33:03.015Z,11.85
2022-10-11T00:35:41.832Z,11.75
2022-10-11T00:38:19.162Z,11.75
2022-10-11T00:40:56.543Z,11.75
2022-10-11T00:43:34.253Z,11.69
2022-10-11T00:46:30.438Z,11.73
2022-10-11T00:49:17.194Z,11.86
2022-10-11T00:52:01.897Z,11.83
2022-10-11T00:54:42.876Z,11.75
2022-10-11T00:57:25.180Z,11.68
2022-10-11T01:00:06.452Z,11.67
2022-10-11T01:02:43.926Z,11.62
2022-10-11T01:05:30.171Z,11.65
2022-10-11T01:08:08.732Z,11.66
2022-10-11T01:10:46.129Z,11.73
2022-10-11T01:13:58.281Z,11.80
2022-10-11T01:16:53.246Z,11.69
2022-10-11T01:19:59.535Z,11.60
2022-10-11T01:23:10.997Z,11.48
2022-10-11T01:26:12.557Z,11.37
2022-10-11T01:29:03.374Z,11.33
2022-10-11T01:31:56.755Z,11.29
2022-10-11T01:34:53.248Z,11.23
2022-10-11T01:37:36.318Z,11.27
2022-10-11T01:40:21.988Z,11.24
2022-10-11T01:43:01.239Z,11.21
2022-10-11T01:45:39.257Z,11.12
2022-10-11T01:48:16.643Z,11.13
2022-10-11T01:50:57.229Z,11.13
2022-10-11T01:53:49.120Z,11.23
2022-10-11T01:56:51.120Z,11.21
2022-10-11T01:59:38.514Z,11.12
2022-10-11T02:02:36.886Z,11.10
2022-10-11T02:05:43.255Z,11.03
2022-10-11T02:08:37.506Z,11.01
2022-10-11T02:11:31.429Z,10.96
2022-10-11T02:14:11.367Z,10.97
2022-10-11T02:16:57.779Z,11.03
2022-10-11T02:19:40.969Z,11.15
2022-10-11T02:22:24.787Z,11.24
2022-10-11T02:25:08.693Z,11.17
2022-10-11T02:27:48.797Z,11.12
2022-10-11T02:30:26.187Z,11.04
2022-10-11T02:33:07.886Z,11.12
2022-10-11T02:35:49.664Z,11.18
2022-10-11T02:38:53.193Z,11.08
2022-10-11T02:41:35.243Z,11.02
2022-10-11T02:44:35.514Z,10.98
2022-10-11T02:47:14.240Z,11.04
2022-10-11T02:49:51.606Z,11.11
2022-10-11T02:52:28.961Z,11.15
2022-10-11T02:55:06.997Z,11.07
2022-10-11T02:57:44.435Z,11.10
2022-10-11T03:00:21.704Z,11.10
2022-10-11T03:02:59.011Z,11.15
2022-10-11T03:05:42.247Z,11.32
2022-10-11T03:08:19.491Z,11.33
2022-10-11T03:10:56.916Z,11.29
2022-10-11T03:13:34.234Z,11.17
2022-10-11T03:16:11.851Z,11.08
2022-10-11T03:18:49.490Z,11.11
2022-10-11T03:21:26.780Z,11.04
2022-10-11T03:24:04.366Z,11.00
2022-10-11T03:26:41.644Z,10.97
2022-10-11T03:29:18.977Z,10.91
2022-10-11T03:31:56.304Z,10.84
2022-10-11T03:34:33.890Z,10.86
2022-10-11T03:37:11.118Z,10.79
2022-10-11T03:39:48.998Z,10.77
2022-10-11T03:42:26.299Z,10.76
2022-10-11T03:45:08.446Z,10.86
2022-10-11T03:47:45.635Z,10.74
2022-10-11T03:50:23.073Z,10.68
2022-10-11T03:53:00.464Z,10.61
2022-10-11T03:55:40.309Z,10.56
2022-10-11T03:58:17.523Z,10.55
2022-10-11T04:00:54.807Z,10.49
2022-10-11T04:03:32.106Z,10.43
2022-10-11T04:06:09.579Z,10.36
2022-10-11T04:08:57.085Z,10.35
2022-10-11T04:11:34.351Z,10.35
2022-10-11T04:14:11.623Z,10.35
2022-10-11T04:16:48.887Z,10.31
2022-10-11T04:19:26.228Z,10.30
2022-10-11T04:22:06.908Z,10.27
2022-10-11T04:24:44.146Z,10.27
2022-10-11T04:27:21.797Z,10.25
2022-10-11T04:30:05.531Z,10.31
2022-10-11T04:32:43.278Z,10.27
2022-10-11T04:35:20.617Z,10.25
2022-10-11T04:37:57.926Z,10.23
2022-10-11T04:40:35.410Z,10.21
2022-10-11T04:43:12.768Z,10.24
2022-10-11T04:45:54.632Z,10.27
2022-10-11T04:48:33.131Z,10.26
2022-10-11T04:51:10.402Z,10.26
2022-10-11T04:53:48.707Z,10.21
2022-10-11T04:56:26.153Z,10.20
2022-10-11T04:59:03.825Z,10.22
2022-10-11T05:01:41.161Z,10.24
2022-10-11T05:04:18.447Z,10.23
2022-10-11T05:06:55.820Z,10.29
2022-10-11T05:09:33.119Z,10.31
2022-10-11T05:12:10.865Z,10.28
2022-10-11T05:14:48.315Z,10.33
2022-10-11T05:17:25.657Z,10.37
2022-10-11T05:20:02.967Z,10.43
2022-10-11T05:22:40.342Z,10.38
2022-10-11T05:25:17.819Z,10.33
2022-10-11T05:27:55.041Z,10.33
2022-10-11T05:30:34.681Z,10.38
2022-10-11T05:33:11.989Z,10.45
2022-10-11T05:35:49.367Z,10.47
2022-10-11T05:38:27.174Z,10.47
2022-10-11T05:41:06.303Z,10.49
2022-10-11T05:43:44.866Z,10.50
2022-10-11T05:46:22.410Z,10.55
2022-10-11T05:48:59.645Z,10.65
2022-10-11T05:51:36.904Z,10.70
2022-10-11T05:54:14.241Z,10.77
2022-10-11T05:56:51.508Z,10.88
2022-10-11T05:59:28.731Z,10.93
2022-10-11T06:02:06.567Z,10.98
2022-10-11T06:04:43.821Z,11.02
2022-10-11T06:07:21.113Z,11.04
2022-10-11T06:09:58.318Z,11.09
2022-10-11T06:12:35.746Z,11.10
2022-10-11T06:15:13.069Z,11.15
2022-10-11T06:17:50.345Z,11.42
2022-10-11T06:20:27.806Z,11.37
2022-10-11T06:23:05.174Z,11.48
2022-10-11T06:25:42.390Z,11.43
2022-10-11T06:28:19.650Z,11.38
2022-10-11T06:30:57.693Z,11.47
2022-10-11T06:33:35.431Z,11.44
2022-10-11T06:36:14.543Z,11.55
2022-10-11T06:38:53.167Z,11.94
2022-10-11T06:41:31.205Z,11.99
2022-10-11T06:44:14.448Z,12.06
2022-10-11T06:46:51.778Z,12.02
2022-10-11T06:49:29.200Z,12.10
2022-10-11T06:52:06.491Z,12.31
2022-10-11T06:54:45.016Z,12.23
2022-10-11T06:57:22.541Z,12.21
2022-10-11T06:59:59.860Z,12.15
2022-10-11T07:02:37.122Z,12.16
2022-10-11T07:05:14.355Z,12.08
2022-10-11T07:07:51.603Z,12.13
2022-10-11T07:10:28.898Z,12.25
2022-10-11T07:13:06.195Z,12.30
2022-10-11T07:15:43.562Z,12.35
2022-10-11T07:18:20.987Z,12.64
2022-10-11T07:20:59.289Z,12.71
2022-10-11T07:23:36.933Z,13.02
2022-10-11T07:26:14.469Z,13.27
2022-10-11T07:28:51.972Z,13.36
2022-10-11T07:31:29.956Z,13.73
2022-10-11T07:34:07.452Z,13.80
2022-10-11T07:36:44.779Z,13.86
2022-10-11T07:39:22.167Z,14.08
2022-10-11T07:42:00.252Z,13.73
2022-10-11T07:44:37.556Z,13.93
2022-10-11T07:47:15.367Z,14.38
2022-10-11T07:49:52.639Z,14.36
2022-10-11T07:52:29.886Z,14.25
2022-10-11T07:55:07.700Z,14.44
2022-10-11T07:57:44.996Z,14.58
2022-10-11T08:00:22.436Z,14.63
2022-10-11T08:03:02.935Z,14.67
2022-10-11T08:05:40.161Z,14.43
2022-10-11T08:08:17.487Z,14.81
2022-10-11T08:10:56.347Z,14.82
2022-10-11T08:13:34.350Z,15.20
2022-10-11T08:16:12.811Z,15.31
2022-10-11T08:18:50.343Z,15.45
2022-10-11T08:21:27.725Z,15.46
2022-10-11T08:24:05.851Z,15.22
2022-10-11T08:26:43.113Z,15.29
2022-10-11T08:29:20.495Z,14.98
2022-10-11T08:31:58.523Z,15.01
2022-10-11T08:34:35.810Z,14.82
2022-10-11T08:37:13.178Z,15.02
2022-10-11T08:39:50.604Z,15.21
2022-10-11T08:42:36.727Z,15.49
2022-10-11T08:45:45.631Z,15.52
2022-10-11T08:48:44.958Z,15.32
2022-10-11T08:51:33.985Z,15.59
2022-10-11T08:54:23.135Z,15.91
2022-10-11T08:57:03.732Z,15.93
2022-10-11T09:00:07.003Z,15.90
2022-10-11T09:03:14.725Z,15.69
2022-10-11T09:06:26.393Z,16.08
2022-10-11T09:09:41.157Z,16.17
2022-10-11T09:12:47.930Z,16.05
2022-10-11T09:16:03.439Z,16.25
2022-10-11T09:19:01.694Z,16.08
2022-10-11T09:21:48.006Z,16.29
2022-10-11T09:24:37.075Z,16.66
2022-10-11T09:27:57.303Z,16.87
2022-10-11T09:30:24.692Z,16.63
2022-10-11T09:33:08.329Z,16.77
2022-10-11T09:35:50.974Z,16.81
2022-10-11T09:38:40.998Z,17.04
2022-10-11T09:41:39.139Z,17.23
2022-10-11T09:44:07.903Z,17.05
2022-10-11T09:46:39.175Z,16.93
2022-10-11T09:49:10.681Z,17.02
2022-10-11T09:51:38.604Z,17.25
2022-10-11T09:54:06.802Z,17.43
2022-10-11T09:56:40.539Z,17.45
2022-10-11T09:59:27.470Z,17.59
2022-10-11T10:02:12.899Z,17.66
2022-10-11T10:05:02.013Z,17.62
2022-10-11T10:07:31.675Z,17.67
2022-10-11T10:09:58.719Z,17.70
2022-10-11T10:12:30.687Z,17.70
2022-10-11T10:15:19.533Z,17.76
2022-10-11T10:17:51.968Z,17.86
2022-10-11T10:20:28.009Z,17.96
2022-10-11T10:22:55.117Z,17.86
2022-10-11T10:25:30.759Z,18.04
2022-10-11T10:28:03.566Z,18.26
2022-10-11T10:30:35.409Z,18.07
2022-10-11T10:33:11.772Z,18.12
2022-10-11T10:35:45.667Z,18.11
2022-10-11T10:38:22.853Z,18.21
2022-10-11T10:40:56.826Z,18.40
2022-10-11T10:43:43.985Z,18.25
2022-10-11T10:46:17.039Z,18.22
2022-10-11T10:49:52.514Z,18.42
2022-10-11T10:52:31.831Z,18.59
2022-10-11T10:55:23.999Z,18.51
2022-10-11T10:58:18.471Z,18.76
2022-10-11T11:00:51.062Z,18.89
2022-10-11T11:03:48.136Z,19.08
2022-10-11T11:06:35.661Z,19.12
2022-10-11T11:09:11.400Z,18.93
2022-10-11T11:12:08.968Z,19.04
2022-10-11T11:14:35.918Z,19.06
2022-10-11T11:17:06.285Z,19.02
2022-10-11T11:20:03.416Z,19.07
2022-10-11T11:22:33.638Z,19.11
2022-10-11T11:25:00.631Z,19.20
2022-10-11T11:27:46.168Z,19.46
2022-10-11T11:30:30.186Z,19.46
2022-10-11T11:33:17.517Z,19.47
2022-10-11T11:35:52.955Z,19.47
2022-10-11T11:38:34.380Z,19.41
2022-10-11T11:41:06.378Z,19.48
2022-10-11T11:43:59.189Z,19.47
2022-10-11T11:46:38.523Z,19.57
2022-10-11T11:49:17.279Z,19.34
2022-10-11T11:51:46.351Z,19.36
2022-10-11T11:54:24.601Z,19.25
2022-10-11T11:57:30.400Z,19.31
2022-10-11T12:00:26.837Z,19.50
2022-10-11T12:03:01.353Z,19.68
2022-10-11T12:05:32.119Z,19.85
2022-10-11T12:08:27.491Z,19.81
2022-10-11T12:10:59.856Z,19.84
2022-10-11T12:13:34.236Z,19.95
2022-10-11T12:16:09.942Z,19.93
2022-10-11T12:18:54.374Z,20.21
2022-10-11T12:21:39.567Z,20.33
2022-10-11T12:24:11.339Z,20.37
2022-10-11T12:26:46.827Z,20.32
2022-10-11T12:29:31.888Z,20.30
2022-10-11T12:31:58.966Z,20.29
2022-10-11T12:34:42.274Z,20.45
2022-10-11T12:37:18.952Z,20.76
2022-10-11T12:39:57.395Z,20.69
2022-10-11T12:42:33.183Z,20.31
2022-10-11T12:45:15.077Z,20.63
2022-10-11T12:48:04.490Z,20.79
2022-10-11T12:50:42.216Z,20.71
2022-10-11T12:53:24.448Z,20.84
2022-10-11T12:56:20.936Z,20.62
2022-10-11T12:58:48.672Z,20.55
2022-10-11T13:01:21.815Z,20.79
2022-10-11T13:03:53.171Z,20.77
2022-10-11T13:06:31.187Z,20.81
2022-10-11T13:09:03.745Z,20.89
2022-10-11T13:11:38.989Z,20.71
2022-10-11T13:14:17.964Z,20.65
2022-10-11T13:16:56.818Z,20.87
2022-10-11T13:19:24.941Z,21.04
2022-10-11T13:21:56.474Z,21.12
2022-10-11T13:24:25.107Z,21.36
2022-10-11T13:26:55.725Z,21.64
2022-10-11T13:29:35.406Z,21.36
2022-10-11T13:32:15.290Z,21.18
2022-10-11T13:34:46.668Z,20.89
2022-10-11T13:37:20.977Z,20.90
2022-10-11T13:39:51.290Z,20.98
2022-10-11T13:42:20.035Z,21.02
2022-10-11T13:44:47.890Z,20.83
2022-10-11T13:47:21.078Z,20.75
2022-10-11T13:50:00.812Z,20.85
2022-10-11T13:52:27.876Z,21.15
2022-10-11T13:55:09.286Z,21.11
2022-10-11T13:57:42.865Z,21.19
2022-10-11T14:00:15.789Z,21.18
2022-10-11T14:02:54.052Z,21.03
2022-10-11T14:05:29.308Z,21.10
2022-10-11T14:07:59.209Z,21.20
2022-10-11T14:10:27.332Z,20.85
2022-10-11T14:13:04.778Z,20.93
2022-10-11T14:15:35.401Z,20.90
2022-10-11T14:18:33.726Z,20.81
2022-10-11T14:21:28.444Z,20.81
2022-10-11T14:23:58.558Z,20.90
2022-10-11T14:26:27.890Z,20.82
2022-10-11T14:29:00.902Z,20.80
2022-10-11T14:31:30.160Z,20.83
2022-10-11T14:33:58.343Z,20.93
2022-10-11T14:36:28.982Z,21.04
2022-10-11T14:38:56.278Z,21.07
2022-10-11T14:41:23.316Z,20.95
2022-10-11T14:43:50.435Z,20.90
2022-10-11T14:46:24.982Z,20.92
2022-10-11T14:48:56.738Z,20.96
2022-10-11T14:51:32.439Z,20.65
2022-10-11T14:53:59.679Z,20.58
2022-10-11T14:56:26.730Z,20.40
2022-10-11T14:58:53.742Z,20.35
2022-10-11T15:01:20.858Z,20.32
2022-10-11T15:03:49.084Z,20.20
2022-10-11T15:06:24.410Z,20.16
2022-10-11T15:08:53.433Z,20.19
2022-10-11T15:11:23.831Z,20.13
2022-10-11T15:13:51.045Z,20.15
2022-10-11T15:16:20.888Z,20.14
2022-10-11T15:18:53.660Z,20.17
2022-10-11T15:21:23.795Z,20.15
2022-10-11T15:23:52.572Z,20.07
2022-10-11T15:26:26.264Z,20.13
2022-10-11T15:28:55.829Z,20.06
2022-10-11T15:31:24.037Z,20.05
2022-10-11T15:33:51.504Z,20.03
2022-10-11T15:36:21.697Z,19.99
2022-10-11T15:38:49.610Z,19.78
2022-10-11T15:41:19.180Z,19.71
2022-10-11T15:43:47.706Z,19.73
2022-10-11T15:46:20.633Z,19.68
2022-10-11T15:48:48.391Z,19.59
2022-10-11T15:51:16.286Z,19.54
2022-10-11T15:53:43.416Z,19.48
2022-10-11T15:56:15.363Z,19.36
2022-10-11T15:58:43.273Z,19.25
2022-10-11T16:01:20.473Z,19.09
2022-10-11T16:03:48.916Z,18.90
2022-10-11T16:06:16.695Z,18.85
2022-10-11T16:08:44.166Z,18.81
2022-10-11T16:11:12.337Z,18.73
2022-10-11T16:13:40.563Z,18.61
2022-10-11T16:16:09.304Z,18.49
2022-10-11T16:18:38.198Z,18.30
2022-10-11T16:21:08.792Z,18.17
2022-10-11T16:23:36.434Z,18.20
2022-10-11T16:26:06.947Z,18.22
2022-10-11T16:28:34.571Z,18.05
2022-10-11T16:31:14.727Z,17.97
2022-10-11T16:33:48.134Z,18.03
2022-10-11T16:36:36.107Z,18.29
2022-10-11T16:39:24.168Z,18.03
2022-10-11T16:41:51.138Z,17.85
2022-10-11T16:44:21.423Z,17.80
2022-10-11T16:46:49.085Z,17.65
2022-10-11T16:49:18.010Z,17.70
2022-10-11T16:51:45.143Z,17.90
2022-10-11T16:54:14.616Z,17.86
2022-10-11T16:56:45.611Z,17.76
2022-10-11T16:59:13.121Z,17.65
2022-10-11T17:01:40.335Z,17.70
2022-10-11T17:04:07.719Z,17.65
2022-10-11T17:06:34.781Z,17.74
2022-10-11T17:09:02.161Z,17.69
2022-10-11T17:11:29.121Z,17.67
2022-10-11T17:13:56.267Z,17.68
2022-10-11T17:16:23.650Z,17.46
2022-10-11T17:18:50.771Z,17.23
2022-10-11T17:21:20.047Z,17.21
2022-10-11T17:23:48.667Z,16.98
2022-10-11T17:26:19.559Z,16.88
2022-10-11T17:28:46.999Z,16.89
2022-10-11T17:31:14.080Z,16.70
2022-10-11T17:33:41.168Z,16.67
2022-10-11T17:36:20.998Z,16.53
2022-10-11T17:38:48.155Z,16.54
2022-10-11T17:41:15.532Z,16.45
2022-10-11T17:43:43.019Z,16.46
2022-10-11T17:46:12.834Z,16.42
2022-10-11T17:48:40.323Z,16.33
2022-10-11T17:51:15.705Z,16.39
2022-10-11T17:53:43.028Z,16.47
2022-10-11T17:56:13.110Z,16.42
2022-10-11T17:58:40.922Z,16.37
2022-10-11T18:01:12.382Z,16.30
2022-10-11T18:03:40.550Z,16.12
2022-10-11T18:06:12.747Z,16.10
2022-10-11T18:08:40.966Z,16.04
2022-10-11T18:11:14.026Z,15.94
2022-10-11T18:13:45.976Z,15.92
2022-10-11T18:16:14.991Z,15.91
2022-10-11T18:18:42.887Z,16.03
2022-10-11T18:21:51.628Z,16.11
2022-10-11T18:24:22.767Z,16.21
2022-10-11T18:26:49.776Z,16.30
2022-10-11T18:29:21.017Z,16.22
2022-10-11T18:34:57.317Z,16.36
2022-10-11T18:37:28.099Z,16.40
2022-10-11T18:39:55.201Z,16.32
2022-10-11T18:42:22.163Z,16.12
2022-10-11T18:44:49.243Z,16.18
2022-10-11T18:47:16.228Z,16.12
2022-10-11T18:49:43.219Z,16.10
2022-10-11T18:52:10.372Z,15.94
2022-10-11T18:54:37.372Z,15.73
2022-10-11T18:57:04.901Z,15.51
2022-10-11T18:59:33.117Z,15.41
2022-10-11T19:02:00.371Z,15.29
2022-10-11T19:04:28.647Z,15.16
2022-10-11T19:06:55.664Z,15.03
2022-10-11T19:09:26.199Z,14.97
2022-10-11T19:11:55.386Z,14.85
2022-10-11T19:14:28.940Z,14.80
2022-10-11T19:16:56.794Z,14.77
2022-10-11T19:19:27.552Z,14.77
2022-10-11T19:21:54.963Z,14.76
2022-10-11T19:24:25.924Z,14.76
2022-10-11T19:26:54.127Z,14.70
2022-10-11T19:29:25.608Z,14.62
2022-10-11T19:31:55.211Z,14.53
2022-10-11T19:34:23.668Z,14.53
2022-10-11T19:36:52.869Z,14.51
2022-10-11T19:39:21.326Z,14.39
2022-10-11T19:41:48.601Z,14.29
2022-10-11T19:44:16.753Z,14.18
2022-10-11T19:46:51.403Z,14.13
2022-10-11T19:49:22.817Z,14.08
2022-10-11T19:51:50.030Z,14.18
2022-10-11T19:54:17.301Z,14.15
2022-10-11T19:56:44.928Z,14.12
2022-10-11T19:59:13.296Z,14.09
2022-10-11T20:01:43.884Z,14.07
2022-10-11T20:04:27.760Z,14.03
2022-10-11T20:07:00.911Z,14.16
2022-10-11T20:09:30.269Z,14.10
2022-10-11T20:11:57.958Z,14.13
2022-10-11T20:14:25.344Z,14.18
2022-10-11T20:16:52.922Z,14.20
2022-10-11T20:19:20.254Z,14.34
2022-10-11T20:21:48.063Z,14.57
2022-10-11T20:24:15.088Z,14.57
2022-10-11T20:26:42.069Z,14.67
2022-10-11T20:29:08.988Z,14.66
2022-10-11T20:31:40.924Z,14.68
2022-10-11T20:34:09.005Z,14.68
2022-10-11T20:36:36.713Z,14.57
2022-10-11T20:39:05.307Z,14.62
2022-10-11T20:41:39.891Z,14.60
2022-10-11T20:44:08.981Z,14.60
2022-10-11T20:46:38.470Z,14.55
2022-10-11T20:49:08.861Z,14.58
2022-10-11T20:51:38.652Z,14.57
2022-10-11T20:54:05.952Z,14.48
2022-10-11T20:56:33.972Z,14.40
2022-10-11T20:59:01.056Z,14.35
2022-10-11T21:01:40.303Z,14.18
2022-10-11T21:04:18.881Z,14.01
2022-10-11T21:06:47.349Z,13.89
2022-10-11T21:09:16.581Z,13.77
2022-10-11T21:11:44.360Z,13.64
2022-10-11T21:14:11.394Z,13.58
2022-10-11T21:16:38.366Z,13.53
2022-10-11T21:19:06.325Z,13.54
2022-10-11T21:21:34.154Z,13.64
2022-10-11T21:24:02.542Z,13.66
2022-10-11T21:26:30.609Z,13.71
2022-10-11T21:28:59.501Z,13.77
2022-10-11T21:31:32.687Z,13.79
2022-10-11T21:34:00.755Z,13.77
2022-10-11T21:36:27.854Z,13.83
2022-10-11T21:38:55.054Z,13.98
2022-10-11T21:41:25.644Z,13.84
2022-10-11T21:43:53.102Z,13.78
2022-10-11T21:46:23.746Z,13.64
2022-10-11T21:48:52.357Z,13.61
2022-10-11T21:51:23.498Z,13.50
2022-10-11T21:53:51.127Z,13.39
2022-10-11T21:56:18.406Z,13.39
2022-10-11T21:58:49.416Z,13.31
2022-10-11T22:03:59.924Z,13.24
2022-10-11T22:06:26.841Z,13.31
2022-10-11T22:08:53.932Z,13.29
2022-10-11T22:11:23.220Z,13.27
2022-10-11T22:13:50.148Z,13.37
2022-10-11T22:16:17.052Z,13.44
2022-10-11T22:18:44.173Z,13.44
2022-10-11T22:21:17.813Z,13.27
2022-10-11T22:23:46.949Z,13.24
2022-10-11T22:26:18.561Z,13.31
2022-10-11T22:28:48.836Z,13.24
2022-10-11T22:31:19.058Z,13.13
2022-10-11T22:33:46.432Z,13.06
2022-10-11T22:36:13.876Z,12.97
2022-10-11T22:38:42.973Z,13.02
2022-10-11T22:41:10.936Z,13.02
2022-10-11T22:43:38.414Z,12.93
2022-10-11T22:46:06.110Z,12.87
2022-10-11T22:48:33.341Z,12.85
2022-10-11T22:51:00.493Z,12.84
2022-10-11T22:53:27.716Z,12.83
2022-10-11T22:55:54.868Z,12.96
2022-10-11T22:58:21.924Z,12.94
2022-10-11T23:00:49.015Z,12.95
2022-10-11T23:03:17.600Z,13.06
2022-10-11T23:05:53.369Z,13.10
2022-10-11T23:08:20.373Z,12.93
2022-10-11T23:10:47.350Z,12.75
2022-10-11T23:13:14.446Z,12.69
2022-10-11T23:15:42.311Z,12.68
2022-10-11T23:18:09.406Z,12.86
2022-10-11T23:20:38.814Z,12.93
2022-10-11T23:23:06.821Z,12.96
2022-10-11T23:25:33.908Z,12.95
2022-10-11T23:28:01.582Z,13.00
2022-10-11T23:30:29.944Z,12.89
2022-10-11T23:32:57.075Z,12.93
2022-10-11T23:35:24.212Z,12.84
2022-10-11T23:37:53.395Z,12.72
2022-10-11T23:40:20.527Z,12.71
2022-10-11T23:42:47.567Z,12.66
2022-10-11T23:45:14.566Z,12.66
2022-10-11T23:47:41.544Z,12.66
2022-10-11T23:50:09.099Z,12.62
2022-10-11T23:52:36.197Z,12.65
2022-10-11T23:55:03.379Z,12.68
2022-10-11T23:57:30.428Z,12.66
2022-10-11T23:59:57.399Z,12.66
